Benton, AR (72019)

5:54 PM CDT on October 20, 2014 (GMT -0500)
Downtown / First Baptist | Change Station
CLOSE
Current Station
Personal Weather Station
Location: Benton, AR
Elevation: 433 ft
Nearby Weather Stations

Elev 433 ft 34.56 °N, 92.59 °W | Updated 2 seconds ago

Partly Cloudy
Partly Cloudy
66.7 °F
Feels Like 66.7 °F
N
2.9
Wind Variable Wind from WSW
Gusts 4.0 mph

Today
High -- | Low -- °F
--% Chance of Precip.
Yesterday
High -- | Low -- °F
Precip. -- in
7:20 AM 6:29 PM
Waning Crescent, 8% visible
Pressure 30.03 in
Visibility 10.0 miles
Clouds Few 7500 ft
Scattered Clouds 25000 ft
Dew Point 57 °F
Humidity 70%
Rainfall 0.02 in
Snow Depth Not available.
UV 0.0 out of 12
Pollen 3.70 out of 12
Air Quality Not available.
Flu Activity Sporadic
METAR KLIT 202153Z 25006KT 10SM FEW075 SCT250 23/12 A3003 RMK AO2 SLP169 T02280117

More Conditions Fewer Conditions

Pressure 30.03 in
Visibility 10.0 miles
Clouds Few 7500 ft
Scattered Clouds 25000 ft
Dew Point 57 °F
Humidity 70%
Rainfall 0.02 in
Snow Depth Not available.
UV 0.0 out of 12
Pollen 3.70 out of 12
Air Quality Not available.
Flu Activity Sporadic
METAR KLIT 202153Z 25006KT 10SM FEW075 SCT250 23/12 A3003 RMK AO2 SLP169 T02280117

More Conditions Fewer Conditions

10-Day Weather Forecast

Almanac

Astronomy

Oct. 20, 2014 Rise Set
Actual Time 7:20 AM CDT 6:29 PM CDT
Civil Twilight 6:54 AM CDT 6:55 PM CDT
Nautical Twilight 6:25 AM CDT 7:24 PM CDT
Astronomical Twilight 5:55 AM CDT 7:53 PM CDT
Moon 4:16 AM CDT 4:46 PM CDT
Length of Visible Light 12h 00m
Length of Day
11h 09m
Waning Crescent, 8% of the Moon is Illuminated
Today
Waning Crescent
Oct 23
New
Oct 30
First Quarter
Nov 6
Full
Nov 14
Last Quarter

Today's Extremes

State Highs State Lows

Community

WunderPhotos

Upload Photos

1,763,541 photos uploaded!

WunderBlogs® & News

By Dr. Jeff Masters
Director of Meteorology, Weather Underground
By Kari Strenfel
Meteorologist, Weather Underground
By Christopher C. Burt
Weather Historian, Weather Underground
October 20, 2014
October 20, 2014
October 20, 2014

Nearby

Snow Depth

Station Depth Elevation
No new snow has been reported.

Earthquake Activity

City Distance Mag. Time & Date
No recent earthquake activity has been reported nearby.
Minimum magnitude displayed is 2.5.

Coastal Water Temperatures

Place Temperature
No Stations Reporting

Nearby Weather Stations